الصفحة الرئيسية
METAR-TAF:

METAR-TAF

مطار :

Kasuminome, اليابان

دائرة عرض: 38-14N, خط طول: 140-55E, ارتفاع: 7 متر

مراقبة الطقس الحالي

تاريخ ووقت الإصدار 2ساعات و 51 دقيقة قبل الساعة 00:26UTC
ريح 5 عقدة من الشمال/الشمال الشرقي
درجة الحرارة 25°درجة مئوية
الرطوبة 69%
ضغط 1006 hPa
الرؤية 10 كم أو أكثر
غيوم قليلة على ارتفاع 1500 قدم
غيوم مفككة على ارتفاع 5000 قدم
غيوم مفككة على ارتفاع 22000 قدم

METAR: RJSU 250026Z 02005KT 9999 FEW015 BKN050 BKN220 25/19 Q1006 RMK 1CU015 5SC050 7CI220 A2971

زمن: 12:17 (03:17 UTC)


TAF: مفقودة

أرصاد الطقس والتوقعات من أكثر من 4000 مطار (تقارير الطقس للمطار METAR والتنبؤ بالطقس بالمطارTAF).

المحطات المتاحة هي النقط الصفراء والحمراء على الخريطة.

حرك المؤشر فوق النقطة لمعرفة اسم المحطة.

ثم انقر لمعرفة أرصاد وتوقعات الطقس.

لتغيير الخارطة: اضغط على الأزرار الخضراء مع رمز الصليب الأسود للتكبير. على الزر الأخضر مع شرطة للتصغير، أو على الأسهم الخضراء للخرائط المجاورة.


METAR-TAF: